Main page
METAR-TAF:

METAR-TAF

Airports :

Grand Prairie Municipal Airport

Grand Prairie, Texas, United States

latitude: 32-41-55N, longitude: 097-02-48W, elevation: 590 ft

Current weather observation

The report was made 16 minutes ago, at 15:50 UTC
Wind 12 mph from the East/Northeast with gusts up to 21 mph
Temperature 81°F
Humidity 70%
Pressure 30.08 in. Hg
Visibility: 10 miles
Broken clouds at a height of 2600 ft
Overcast at a height of 3000 ft

METAR: KGPM 191550Z 07010G18KT 10SM BKN026 OVC030 27/21 A3008

Time: 11:06 (16:06 UTC)


TAF: missing

Weather observations and forecasts of more than 4000 airports (METAR and TAF reports).

The available stations are represented by yellow and red dots on the map.

Hover mouse over dot to see the name of the station.

Then click to see weather observations and forecasts.

To change the map : click on the green buttons with a black cross to zoom in, on the green button with a dash to zoom out, or on the green arrows for adjacent maps.


METAR-TAF: